»·PEaware :: N524MG KAMA-KMRF

N524MG :: KAMA-KMRF

FLIGHT INFORMATION

Flight Status: Arrived
Operator: Privately registered:
United States
More flights under this callsign
Pilot: Michael G. (23473)
Aircraft: CESSNA 182 SKYLANE
(C182)
More flights by this aircraft type
Origin: KAMA Amarillo Intl
United States
Destination: KMRF Marfa Mun
United States
More flights between these airports :: More routes between these airports
Route: +PVW V81 MRF
File this flight plan on PilotEdge
Remarks:
Altitude:
(Current/Filed)
10,000ft
Speed:
(Current/Filed)
130kts
Departed: 11-Feb-19 10:56 AM
Arrived: 11-Feb-19 01:41 PM
Distance/Time
Traveled:
313nm/2:45
Distance/Time
To Go:
Arrived

Flight Plot

Page will automatically refresh every two minutes.

Flight plan parsing failed; only flown route is shown


Map Options




Map Legend


Flown Route
Filed Route
Departure Airport
Arrival Airport
Navaid (VOR, NDB)
Fix

Horizontal Profiles

Position Reports

Time Latitude Longitude Heading Altitude Ground
Speed
11-Feb-19 10:44 35.220056 -101.703346 74 3610ft 0kts
11-Feb-19 10:45 35.220056 -101.703343 74 3610ft 0kts
11-Feb-19 10:46 35.220057 -101.703340 74 3610ft 0kts
11-Feb-19 10:47 35.220058 -101.703336 74 3610ft 0kts
11-Feb-19 10:48 35.220059 -101.703333 74 3610ft 0kts
11-Feb-19 10:49 35.220320 -101.703252 330 3610ft 7kts
11-Feb-19 10:50 35.220514 -101.703455 318 3610ft 1kts
11-Feb-19 10:51 35.223687 -101.705579 46 3610ft 21kts
11-Feb-19 10:52 35.229219 -101.698676 0 3610ft 15kts
11-Feb-19 10:53 35.229571 -101.699118 226 3610ft 0kts
11-Feb-19 10:54 35.230424 -101.700054 313 3610ft 14kts
11-Feb-19 10:55 35.220289 -101.713202 221 3802ft 98kts
11-Feb-19 10:56 35.201660 -101.735690 229 4789ft 92kts
11-Feb-19 10:57 35.183355 -101.757888 226 5659ft 94kts
11-Feb-19 10:58 35.160471 -101.782683 227 6487ft 121kts
11-Feb-19 10:59 35.134930 -101.810267 226 7250ft 122kts
11-Feb-19 11:00 35.108043 -101.835792 197 8041ft 135kts
11-Feb-19 11:01 35.070658 -101.826806 178 8823ft 134kts
11-Feb-19 11:02 35.035523 -101.821141 192 9632ft 122kts
11-Feb-19 11:03 35.001813 -101.821289 190 10449ft 122kts
11-Feb-19 11:04 34.970155 -101.820413 191 11001ft 117kts
11-Feb-19 11:05 34.934653 -101.819330 189 11004ft 133kts
11-Feb-19 11:06 34.897290 -101.817992 189 11001ft 135kts
11-Feb-19 11:07 34.859583 -101.816675 189 11002ft 135kts
11-Feb-19 11:08 34.819550 -101.815347 189 11002ft 147kts
11-Feb-19 11:09 34.780175 -101.813899 190 11000ft 137kts
11-Feb-19 11:10 34.742120 -101.812611 190 11007ft 136kts
11-Feb-19 11:11 34.703652 -101.811311 189 11013ft 139kts
11-Feb-19 11:12 34.665474 -101.809965 190 11009ft 135kts
11-Feb-19 11:13 34.625169 -101.808660 190 10993ft 147kts
11-Feb-19 11:14 34.586084 -101.807205 191 10990ft 136kts
11-Feb-19 11:15 34.548614 -101.805947 192 10999ft 133kts
11-Feb-19 11:16 34.510483 -101.804694 191 11004ft 139kts
11-Feb-19 11:17 34.472449 -101.803340 192 10999ft 134kts
11-Feb-19 11:18 34.435236 -101.802075 192 11003ft 133kts
11-Feb-19 11:19 34.398264 -101.800818 192 11006ft 133kts
11-Feb-19 11:20 34.361131 -101.799552 192 11008ft 133kts
11-Feb-19 11:21 34.321024 -101.798269 190 11006ft 147kts
11-Feb-19 11:22 34.279824 -101.796787 191 11004ft 145kts
11-Feb-19 11:23 34.241186 -101.795410 192 11006ft 135kts
11-Feb-19 11:24 34.203971 -101.794174 192 11012ft 133kts
11-Feb-19 11:25 34.166786 -101.792928 192 11010ft 133kts
11-Feb-19 11:26 34.129719 -101.791672 192 11011ft 133kts
11-Feb-19 11:27 34.092617 -101.790415 192 11011ft 133kts
11-Feb-19 11:28 34.058650 -101.799136 207 11017ft 124kts
11-Feb-19 11:29 34.025197 -101.810105 207 11013ft 124kts
11-Feb-19 11:30 33.991671 -101.821054 207 11016ft 124kts
11-Feb-19 11:31 33.958263 -101.831914 207 11018ft 124kts
11-Feb-19 11:32 33.924879 -101.842763 207 11020ft 124kts
11-Feb-19 11:33 33.891415 -101.853639 207 11023ft 124kts
11-Feb-19 11:34 33.857992 -101.864492 207 11025ft 124kts
11-Feb-19 11:35 33.824547 -101.875341 207 11027ft 124kts
11-Feb-19 11:36 33.790993 -101.886212 207 11028ft 124kts
11-Feb-19 11:37 33.757505 -101.897056 207 11029ft 124kts
11-Feb-19 11:38 33.724087 -101.907870 207 11030ft 124kts
11-Feb-19 11:39 33.689825 -101.916618 200 11030ft 128kts
11-Feb-19 11:40 33.654424 -101.922449 201 11031ft 128kts
11-Feb-19 11:41 33.619030 -101.928318 201 11031ft 128kts
11-Feb-19 11:42 33.583708 -101.934171 201 11032ft 128kts
11-Feb-19 11:43 33.548357 -101.940027 201 11032ft 128kts
11-Feb-19 11:44 33.513003 -101.945878 201 11034ft 128kts
11-Feb-19 11:45 33.477625 -101.951728 201 11035ft 128kts
11-Feb-19 11:46 33.442331 -101.957565 200 11038ft 128kts
11-Feb-19 11:47 33.407182 -101.963365 200 11038ft 127kts
11-Feb-19 11:48 33.372009 -101.969174 200 11042ft 127kts
11-Feb-19 11:49 33.336839 -101.974986 200 11045ft 127kts
11-Feb-19 11:50 33.301619 -101.980814 200 11048ft 127kts
11-Feb-19 11:51 33.266375 -101.986644 200 11052ft 127kts
11-Feb-19 11:52 33.231257 -101.992442 200 11056ft 127kts
11-Feb-19 11:53 33.195990 -101.998226 200 11060ft 127kts
11-Feb-19 11:54 33.160533 -102.004035 200 11063ft 129kts
11-Feb-19 11:56 33.124794 -102.009875 200 11069ft 130kts
11-Feb-19 11:57 33.088932 -102.015728 200 11072ft 130kts
11-Feb-19 11:58 33.053149 -102.021590 200 11076ft 130kts
11-Feb-19 11:59 33.017318 -102.027474 201 11078ft 129kts
11-Feb-19 12:00 32.981684 -102.033320 201 11081ft 129kts
11-Feb-19 12:01 32.945926 -102.039174 201 11085ft 129kts
11-Feb-19 12:02 32.910196 -102.045005 201 11088ft 129kts
11-Feb-19 12:03 32.874493 -102.050831 201 11090ft 129kts
11-Feb-19 12:04 32.838822 -102.056642 201 11093ft 129kts
11-Feb-19 12:05 32.803020 -102.062476 201 11095ft 129kts
11-Feb-19 12:06 32.767230 -102.068314 201 11098ft 129kts
11-Feb-19 12:07 32.731376 -102.074131 201 11099ft 130kts
11-Feb-19 12:08 32.695419 -102.079970 201 11101ft 130kts
11-Feb-19 12:09 32.659597 -102.085784 201 11105ft 130kts
11-Feb-19 12:10 32.623599 -102.091624 201 11105ft 130kts
11-Feb-19 12:11 32.587770 -102.097431 201 11107ft 130kts
11-Feb-19 12:12 32.551783 -102.103257 201 11110ft 130kts
11-Feb-19 12:13 32.515936 -102.109056 201 11115ft 130kts
11-Feb-19 12:13 32.485947 -102.113911 201 11091ft 131kts
11-Feb-19 12:15 32.443843 -102.120702 201 11088ft 130kts
11-Feb-19 12:16 32.407877 -102.126501 201 11088ft 130kts
11-Feb-19 12:16 32.377860 -102.131341 201 11088ft 130kts
11-Feb-19 12:17 32.341952 -102.137126 201 11089ft 130kts
11-Feb-19 12:18 32.306021 -102.142909 201 11089ft 130kts
11-Feb-19 12:20 32.264136 -102.149638 201 11089ft 129kts
11-Feb-19 12:20 32.234433 -102.154405 201 11089ft 129kts
11-Feb-19 12:21 32.198703 -102.160139 201 11092ft 129kts
11-Feb-19 12:22 32.162969 -102.165864 201 11092ft 129kts
11-Feb-19 12:23 32.127210 -102.171586 201 11091ft 129kts
11-Feb-19 12:24 32.091302 -102.177330 201 11091ft 130kts
11-Feb-19 12:25 32.055482 -102.183050 201 11091ft 129kts
11-Feb-19 12:26 32.019786 -102.188749 201 11091ft 130kts
11-Feb-19 12:27 31.989454 -102.205411 221 11092ft 118kts
11-Feb-19 12:28 31.961597 -102.226396 221 11090ft 119kts
11-Feb-19 12:29 31.933710 -102.247373 221 11090ft 119kts
11-Feb-19 12:30 31.905712 -102.268403 221 11090ft 119kts
11-Feb-19 12:31 31.877781 -102.289360 221 11090ft 119kts
11-Feb-19 12:32 31.849783 -102.310391 221 11095ft 125kts
11-Feb-19 12:33 31.820562 -102.332259 221 11086ft 121kts
11-Feb-19 12:34 31.791131 -102.354350 221 11096ft 129kts
11-Feb-19 12:35 31.761879 -102.376186 221 11085ft 121kts
11-Feb-19 12:36 31.733631 -102.397319 222 11090ft 119kts
11-Feb-19 12:37 31.705720 -102.418188 222 11092ft 118kts
11-Feb-19 12:38 31.677825 -102.439023 222 11093ft 118kts
11-Feb-19 12:39 31.649997 -102.459791 222 11094ft 118kts
11-Feb-19 12:40 31.622050 -102.480637 222 11095ft 118kts
11-Feb-19 12:41 31.594157 -102.501434 222 11096ft 119kts
11-Feb-19 12:42 31.566235 -102.522223 222 11095ft 118kts
11-Feb-19 12:43 31.538600 -102.542767 222 11096ft 117kts
11-Feb-19 12:44 31.510855 -102.563403 222 11100ft 118kts
11-Feb-19 12:45 31.482973 -102.584121 222 11101ft 119kts
11-Feb-19 12:46 31.455010 -102.604882 222 11102ft 119kts
11-Feb-19 12:47 31.427028 -102.625644 222 11104ft 119kts
11-Feb-19 12:48 31.398920 -102.646479 222 11106ft 119kts
11-Feb-19 12:49 31.371005 -102.667151 222 11106ft 118kts
11-Feb-19 12:50 31.342437 -102.688255 222 11003ft 120kts
11-Feb-19 12:51 31.314446 -102.709018 222 11003ft 118kts
11-Feb-19 12:52 31.286788 -102.729476 222 11009ft 117kts
11-Feb-19 12:53 31.259167 -102.749871 222 11012ft 118kts
11-Feb-19 12:54 31.231251 -102.770445 222 11014ft 118kts
11-Feb-19 12:55 31.203351 -102.790938 222 11015ft 118kts
11-Feb-19 12:56 31.175483 -102.811599 222 11019ft 118kts
11-Feb-19 12:57 31.147604 -102.832159 222 11020ft 118kts
11-Feb-19 12:58 31.119327 -102.852978 222 10973ft 120kts
11-Feb-19 12:59 31.090005 -102.874604 221 10973ft 130kts
11-Feb-19 13:00 31.060286 -102.896376 222 10962ft 122kts
11-Feb-19 13:01 31.031807 -102.917304 222 10969ft 120kts
11-Feb-19 13:02 31.003513 -102.938080 222 10971ft 120kts
11-Feb-19 13:03 30.973483 -102.960166 221 10979ft 133kts
11-Feb-19 13:04 30.946269 -102.984590 238 10971ft 116kts
11-Feb-19 13:05 30.926435 -103.014717 238 10974ft 118kts
11-Feb-19 13:06 30.904944 -103.047350 237 10975ft 133kts
11-Feb-19 13:07 30.884015 -103.078921 238 10969ft 117kts
11-Feb-19 13:08 30.863223 -103.110402 237 10988ft 127kts
11-Feb-19 13:09 30.842658 -103.141409 238 10973ft 117kts
11-Feb-19 13:10 30.823053 -103.171009 238 10984ft 115kts
11-Feb-19 13:11 30.817023 -103.180104 238 10990ft 114kts
11-Feb-19 13:17 30.683197 -103.381463 238 11030ft 115kts
11-Feb-19 13:18 30.663519 -103.410993 238 11044ft 115kts
11-Feb-19 13:19 30.640289 -103.439843 228 11063ft 129kts
11-Feb-19 13:20 30.611540 -103.467858 228 11051ft 136kts
11-Feb-19 13:21 30.584805 -103.494068 229 11069ft 120kts
11-Feb-19 13:22 30.557673 -103.520855 229 11090ft 133kts
11-Feb-19 13:23 30.531052 -103.546983 229 11089ft 121kts
11-Feb-19 13:24 30.504505 -103.573140 229 11107ft 127kts
11-Feb-19 13:25 30.476614 -103.600570 229 11100ft 133kts
11-Feb-19 13:26 30.449124 -103.627549 229 11101ft 128kts
11-Feb-19 13:27 30.422251 -103.653929 229 11105ft 126kts
11-Feb-19 13:28 30.395665 -103.680018 229 10870ft 126kts
11-Feb-19 13:29 30.368613 -103.706532 228 10576ft 128kts
11-Feb-19 13:30 30.340652 -103.733931 227 10294ft 133kts
11-Feb-19 13:31 30.310270 -103.763683 226 9904ft 146kts
11-Feb-19 13:32 30.279161 -103.794079 225 9493ft 144kts
11-Feb-19 13:33 30.249309 -103.823209 225 9101ft 130kts
11-Feb-19 13:34 30.230453 -103.853499 275 9096ft 121kts
11-Feb-19 13:35 30.257023 -103.887555 306 8597ft 155kts
11-Feb-19 13:36 30.287675 -103.922531 306 7870ft 154kts
11-Feb-19 13:37 30.311520 -103.949694 304 6352ft 105kts
11-Feb-19 13:38 30.338562 -103.980376 308 5639ft 158kts
11-Feb-19 13:39 30.362089 -104.006943 294 5012ft 64kts
11-Feb-19 13:40 30.369219 -104.014476 45 4852ft 0kts
11-Feb-19 13:41 30.368906 -104.012971 143 4852ft 14kts
11-Feb-19 13:42 30.369399 -104.011454 113 4852ft 0kts
11-Feb-19 13:43 30.369398 -104.011451 113 4852ft 0kts
11-Feb-19 13:44 30.369397 -104.011447 113 4852ft 0kts
11-Feb-19 13:45 30.369396 -104.011444 113 4852ft 0kts
11-Feb-19 13:46 30.369394 -104.011441 113 4852ft 0kts
11-Feb-19 13:47 30.369394 -104.011440 113 4852ft 0kts

Navigation Log

Ident Type
Flight plan parsing failed, navigation log unavailable